Time,TemperatureF,DewpointF,PressureIn,WindDirection,WindDirectionDegrees,WindSpeedMPH,WindSpeedGustMPH,Humidity,HourlyPrecipIn,Conditions,Clouds,dailyrainin,SoftwareType,DateUTC
2013-06-24 00:02:00,71.0,66.0,-100.00,ENE,70,0.0,1.0,85,0.00,,,-99.99,,2013-06-24 04:02:00,
2013-06-24 00:12:00,71.0,67.0,-100.00,ENE,70,0.0,0.0,86,0.00,,,-99.99,,2013-06-24 04:12:00,
2013-06-24 00:22:00,70.0,66.0,-100.00,NE,50,0.0,1.0,86,0.00,,,-99.99,,2013-06-24 04:22:00,
2013-06-24 00:33:00,70.0,66.0,-100.00,East,80,0.0,1.0,87,0.00,,,-99.99,,2013-06-24 04:33:00,
2013-06-24 00:43:00,70.0,66.0,-100.00,NE,45,0.0,2.0,87,0.00,,,-99.99,,2013-06-24 04:43:00,
2013-06-24 00:52:00,71.0,67.0,-100.00,NW,320,1.0,6.0,86,0.00,,,-99.99,,2013-06-24 04:52:00,
2013-06-24 01:02:00,71.0,66.0,-100.00,NE,55,0.0,2.0,86,0.00,,,-99.99,,2013-06-24 05:02:00,
2013-06-24 01:12:00,70.0,66.0,-100.00,East,100,1.0,2.0,86,0.00,,,-99.99,,2013-06-24 05:12:00,
2013-06-24 01:22:00,70.0,66.0,-100.00,NNE,25,0.0,1.0,87,0.00,,,-99.99,,2013-06-24 05:22:00,
2013-06-24 01:36:00,70.0,66.0,-100.00,NNE,30,0.0,4.0,88,0.00,,,-99.99,,2013-06-24 05:36:00,
2013-06-24 01:53:00,69.0,66.0,-100.00,ENE,60,0.0,2.0,88,0.00,,,-99.99,,2013-06-24 05:53:00,
2013-06-24 02:08:00,69.0,66.0,-100.00,ENE,60,0.0,0.0,89,0.00,,,-99.99,,2013-06-24 06:08:00,
2013-06-24 02:14:00,69.0,65.0,-100.00,East,95,0.0,1.0,89,0.00,,,-99.99,,2013-06-24 06:14:00,
2013-06-24 02:24:00,69.0,65.0,-100.00,ENE,60,0.0,0.0,90,0.00,,,-99.99,,2013-06-24 06:24:00,
2013-06-24 02:37:00,68.0,65.0,-100.00,East,85,0.0,1.0,90,0.00,,,-99.99,,2013-06-24 06:37:00,
2013-06-24 02:45:00,68.0,65.0,-100.00,ENE,75,0.0,0.0,90,0.00,,,-99.99,,2013-06-24 06:45:00,
2013-06-24 02:53:00,68.0,65.0,-100.00,ENE,60,0.0,0.0,90,0.00,,,-99.99,,2013-06-24 06:53:00,
2013-06-24 03:05:00,68.0,65.0,-100.00,East,90,0.0,1.0,90,0.00,,,-99.99,,2013-06-24 07:05:00,
2013-06-24 03:14:00,68.0,65.0,-100.00,NE,55,0.0,0.0,91,0.00,,,-99.99,,2013-06-24 07:14:00,
2013-06-24 03:29:00,68.0,65.0,-100.00,East,95,0.0,1.0,91,0.00,,,-99.99,,2013-06-24 07:29:00,
2013-06-24 03:37:00,67.0,65.0,-100.00,East,85,0.0,0.0,91,0.00,,,-99.99,,2013-06-24 07:37:00,
2013-06-24 04:04:00,67.0,65.0,-100.00,ENE,70,0.0,1.0,91,0.00,,,-99.99,,2013-06-24 08:04:00,
2013-06-24 04:14:00,67.0,64.0,-100.00,East,95,0.0,2.0,91,0.00,,,-99.99,,2013-06-24 08:14:00,
2013-06-24 04:26:00,67.0,64.0,-100.00,East,85,0.0,0.0,92,0.00,,,-99.99,,2013-06-24 08:26:00,
2013-06-24 04:35:00,67.0,64.0,-100.00,East,95,1.0,2.0,91,0.00,,,-99.99,,2013-06-24 08:35:00,
2013-06-24 04:46:00,66.0,64.0,-100.00,East,90,0.0,3.0,92,0.00,,,-99.99,,2013-06-24 08:46:00,
2013-06-24 05:06:00,66.0,64.0,-100.00,NE,45,0.0,0.0,92,0.00,,,-99.99,,2013-06-24 09:06:00,
2013-06-24 05:15:00,66.0,64.0,-100.00,ENE,65,0.0,0.0,92,0.00,,,-99.99,,2013-06-24 09:15:00,
2013-06-24 05:26:00,67.0,65.0,-100.00,SSW,195,0.0,2.0,92,0.00,,,-99.99,,2013-06-24 09:26:00,
2013-06-24 05:37:00,66.0,64.0,-100.00,ENE,65,0.0,0.0,92,0.00,,,-99.99,,2013-06-24 09:37:00,
2013-06-24 05:47:00,66.0,64.0,-100.00,ENE,65,0.0,0.0,92,0.00,,,-99.99,,2013-06-24 09:47:00,
2013-06-24 05:56:00,66.0,64.0,-100.00,East,80,0.0,0.0,92,0.00,,,-99.99,,2013-06-24 09:56:00,
2013-06-24 06:14:00,66.0,64.0,-100.00,NE,50,0.0,0.0,92,0.00,,,-99.99,,2013-06-24 10:14:00,
2013-06-24 06:24:00,65.0,63.0,-100.00,ENE,65,0.0,0.0,92,0.00,,,-99.99,,2013-06-24 10:24:00,
2013-06-24 06:37:00,65.0,63.0,-100.00,ENE,70,0.0,0.0,93,0.00,,,-99.99,,2013-06-24 10:37:00,
2013-06-24 06:50:00,65.0,63.0,-100.00,ENE,70,0.0,0.0,93,0.00,,,-99.99,,2013-06-24 10:50:00,
2013-06-24 07:03:00,66.0,64.0,-100.00,SE,135,0.0,0.0,92,0.00,,,-99.99,,2013-06-24 11:03:00,
2013-06-24 07:29:00,66.0,64.0,-100.00,NE,35,0.0,0.0,93,0.00,,,-99.99,,2013-06-24 11:29:00,
2013-06-24 07:34:00,66.0,64.0,-100.00,East,95,0.0,2.0,93,0.00,,,-99.99,,2013-06-24 11:34:00,
2013-06-24 07:46:00,67.0,65.0,-100.00,ENE,70,0.0,1.0,93,0.00,,,-99.99,,2013-06-24 11:46:00,
2013-06-24 07:56:00,67.0,65.0,-100.00,East,95,0.0,1.0,92,0.00,,,-99.99,,2013-06-24 11:56:00,
2013-06-24 08:05:00,67.0,65.0,-100.00,ESE,115,0.0,2.0,92,0.00,,,-99.99,,2013-06-24 12:05:00,
2013-06-24 08:16:00,68.0,66.0,-100.00,East,80,0.0,1.0,92,0.00,,,-99.99,,2013-06-24 12:16:00,
2013-06-24 08:24:00,69.0,67.0,-100.00,ENE,65,0.0,2.0,92,0.00,,,-99.99,,2013-06-24 12:24:00,
2013-06-24 08:36:00,70.0,67.0,-100.00,SE,125,0.0,2.0,90,0.00,,,-99.99,,2013-06-24 12:36:00,
2013-06-24 08:48:00,72.0,68.0,-100.00,SSE,155,0.0,3.0,87,0.00,,,-99.99,,2013-06-24 12:48:00,
2013-06-24 08:53:00,73.0,68.0,-100.00,SE,130,0.0,2.0,84,0.00,,,-99.99,,2013-06-24 12:53:00,
2013-06-24 09:14:00,74.0,68.0,-100.00,SSW,195,0.0,2.0,80,0.00,,,-99.99,,2013-06-24 13:14:00,
2013-06-24 09:24:00,74.0,68.0,-100.00,SSW,195,0.0,2.0,80,0.00,,,-99.99,,2013-06-24 13:24:00,
2013-06-24 09:36:00,77.0,67.0,-100.00,SW,220,1.0,3.0,72,0.00,,,-99.99,,2013-06-24 13:36:00,
2013-06-24 09:44:00,78.0,67.0,-100.00,SE,140,1.0,3.0,68,0.00,,,-99.99,,2013-06-24 13:44:00,
2013-06-24 10:16:00,80.0,66.0,-100.00,SSW,210,1.0,7.0,62,0.00,,,-99.99,,2013-06-24 14:16:00,
2013-06-24 10:37:00,83.0,67.0,-100.00,SW,235,2.0,9.0,58,0.00,,,-99.99,,2013-06-24 14:37:00,
2013-06-24 10:45:00,83.0,67.0,-100.00,SSE,165,2.0,4.0,58,0.00,,,-99.99,,2013-06-24 14:45:00,
2013-06-24 11:05:00,84.0,66.0,-100.00,South,190,2.0,6.0,56,0.00,,,-99.99,,2013-06-24 15:05:00,
2013-06-24 12:04:00,86.0,66.0,-100.00,WSW,250,6.0,10.0,52,0.00,,,-99.99,,2013-06-24 16:04:00,
2013-06-24 13:05:00,87.0,66.0,-100.00,WNW,290,4.0,7.0,50,0.00,,,-99.99,,2013-06-24 17:05:00,
2013-06-24 13:46:00,88.0,65.0,-100.00,WNW,300,4.0,9.0,48,0.00,,,-99.99,,2013-06-24 17:46:00,
2013-06-24 14:14:00,89.0,65.0,-100.00,SSW,200,2.0,8.0,44,0.00,,,-99.99,,2013-06-24 18:14:00,
2013-06-24 14:46:00,90.0,63.0,-100.00,WNW,285,1.0,11.0,41,0.00,,,-99.99,,2013-06-24 18:46:00,
2013-06-24 15:13:00,91.0,63.0,-100.00,SW,230,4.0,9.0,40,0.00,,,-99.99,,2013-06-24 19:13:00,
2013-06-24 16:12:00,88.0,65.0,-100.00,NW,315,4.0,9.0,47,0.00,,,-99.99,,2013-06-24 20:12:00,
2013-06-24 16:34:00,87.0,63.0,-100.00,NW,315,7.0,11.0,45,0.00,,,-99.99,,2013-06-24 20:34:00,
2013-06-24 16:45:00,85.0,65.0,-100.00,NW,310,6.0,14.0,52,0.00,,,-99.99,,2013-06-24 20:45:00,
2013-06-24 17:04:00,84.0,67.0,-100.00,WNW,295,4.0,11.0,56,0.00,,,-99.99,,2013-06-24 21:04:00,
2013-06-24 17:13:00,83.0,67.0,-100.00,NW,310,7.0,11.0,58,0.00,,,-99.99,,2013-06-24 21:13:00,
2013-06-24 17:25:00,83.0,66.0,-100.00,NW,305,7.0,11.0,56,0.00,,,-99.99,,2013-06-24 21:25:00,
2013-06-24 17:37:00,85.0,66.0,-100.00,WNW,300,5.0,11.0,54,0.00,,,-99.99,,2013-06-24 21:37:00,
2013-06-24 17:46:00,87.0,65.0,-100.00,NW,320,7.0,12.0,48,0.00,,,-99.99,,2013-06-24 21:46:00,
2013-06-24 18:05:00,88.0,64.0,-100.00,WNW,300,3.0,9.0,45,0.00,,,-99.99,,2013-06-24 22:05:00,
2013-06-24 18:23:00,87.0,65.0,-100.00,WNW,290,3.0,9.0,47,0.00,,,-99.99,,2013-06-24 22:23:00,
2013-06-24 18:36:00,87.0,64.0,-100.00,WNW,285,3.0,9.0,46,0.00,,,-99.99,,2013-06-24 22:36:00,
2013-06-24 18:47:00,87.0,63.0,-100.00,West,260,4.0,7.0,45,0.00,,,-99.99,,2013-06-24 22:47:00,
2013-06-24 18:55:00,87.0,62.0,-100.00,WNW,290,3.0,7.0,44,0.00,,,-99.99,,2013-06-24 22:55:00,
2013-06-24 19:05:00,86.0,62.0,-100.00,West,260,2.0,6.0,45,0.00,,,-99.99,,2013-06-24 23:05:00,
2013-06-24 19:14:00,86.0,64.0,-100.00,NW,305,2.0,5.0,46,0.00,,,-99.99,,2013-06-24 23:14:00,
2013-06-24 19:27:00,85.0,64.0,-100.00,WNW,300,2.0,5.0,49,0.00,,,-99.99,,2013-06-24 23:27:00,
2013-06-24 19:35:00,85.0,64.0,-100.00,West,275,2.0,5.0,50,0.00,,,-99.99,,2013-06-24 23:35:00,
2013-06-24 19:45:00,84.0,65.0,-100.00,WNW,300,2.0,4.0,52,0.00,,,-99.99,,2013-06-24 23:45:00,
2013-06-24 19:53:00,84.0,66.0,-100.00,NW,305,1.0,3.0,54,0.00,,,-99.99,,2013-06-24 23:53:00,
2013-06-24 20:06:00,81.0,67.0,-100.00,North,0,0.0,5.0,62,0.00,,,-99.99,,2013-06-25 00:06:00,
2013-06-24 20:12:00,80.0,67.0,-100.00,ENE,70,0.0,2.0,63,0.00,,,-99.99,,2013-06-25 00:12:00,
2013-06-24 20:24:00,79.0,67.0,-100.00,ESE,110,0.0,1.0,67,0.00,,,-99.99,,2013-06-25 00:24:00,
2013-06-24 20:46:00,78.0,67.0,-100.00,East,80,0.0,1.0,70,0.00,,,-99.99,,2013-06-25 00:46:00,
2013-06-24 20:54:00,77.0,67.0,-100.00,NNE,20,1.0,1.0,71,0.00,,,-99.99,,2013-06-25 00:54:00,
2013-06-24 21:44:00,76.0,68.0,-100.00,East,95,1.0,2.0,75,0.00,,,-99.99,,2013-06-25 01:44:00,
2013-06-24 22:16:00,75.0,68.0,-100.00,East,95,0.0,0.0,78,0.00,,,-99.99,,2013-06-25 02:16:00,
2013-06-24 22:25:00,75.0,68.0,-100.00,East,80,0.0,2.0,79,0.00,,,-99.99,,2013-06-25 02:25:00,
2013-06-24 22:37:00,75.0,68.0,-100.00,NNE,25,0.0,1.0,78,0.00,,,-99.99,,2013-06-25 02:37:00,
2013-06-24 22:45:00,75.0,68.0,-100.00,NNE,25,0.0,1.0,78,0.00,,,-99.99,,2013-06-25 02:45:00,
2013-06-24 23:32:00,75.0,69.0,-100.00,West,275,1.0,2.0,80,0.00,,,-99.99,,2013-06-25 03:32:00,
2013-06-24 23:52:00,74.0,69.0,-100.00,ENE,75,0.0,0.0,81,0.00,,,-99.99,,2013-06-25 03:52:00,